Time;durP1;ratioP1;P1;durP2;ratioP2;P2;SDS_P1;SDS_P2;PMS_P1;PMS_P2;Temp;Humidity;BMP_temperature;BMP_pressure;BME280_temperature;BME280_humidity;BME280_pressure;Samples;Min_cycle;Max_cycle;Signal;HPM_P1;HPM_P2
2021/12/07 00:09:56;;;;;;;1.37;0.80;;;3.10;99.90;;;;;;6698098;88;20223;-77
2021/12/07 00:19:58;;;;;;;1.20;0.40;;;3.40;99.90;;;;;;6699056;88;20199;-76
2021/12/07 00:29:58;;;;;;;4.07;0.30;;;3.50;99.90;;;;;;6700517;88;20513;-77
2021/12/07 00:40:07;;;;;;;0.50;0.20;;;3.30;99.90;;;;;;6700249;88;21026;-76
2021/12/07 00:50:08;;;;;;;0.50;0.25;;;2.90;99.90;;;;;;6709287;88;20207;-77
2021/12/07 01:00:13;;;;;;;0.88;0.20;;;2.50;99.90;;;;;;6706099;88;20195;-76
2021/12/07 01:31:14;;;;;;;2.67;1.20;;;2.80;99.90;;;;;;6699721;88;20323;-76
2021/12/07 01:42:45;;;;;;;3.08;1.70;;;3.00;99.90;;;;;;6697375;88;20201;-76
2021/12/07 02:02:09;;;;;;;7.75;2.95;;;3.60;99.90;;;;;;6697387;88;20654;-77
2021/12/07 02:12:12;;;;;;;7.72;2.60;;;3.90;99.90;;;;;;6698854;88;20339;-76
2021/12/07 02:22:12;;;;;;;4.90;1.50;;;3.90;99.90;;;;;;6698769;88;20213;-76
2021/12/07 02:32:13;;;;;;;4.57;1.95;;;3.90;99.90;;;;;;6696999;88;20668;-77
2021/12/07 02:42:14;;;;;;;7.35;2.40;;;3.90;99.90;;;;;;6699969;88;20974;-76
2021/12/07 02:52:15;;;;;;;6.05;2.90;;;4.00;99.90;;;;;;6699598;88;20218;-76
2021/12/07 03:02:18;;;;;;;9.73;3.22;;;4.00;99.90;;;;;;6699950;88;20276;-77
2021/12/07 03:32:59;;;;;;;9.57;3.97;;;4.40;99.90;;;;;;6697430;88;20182;-76
2021/12/07 03:43:00;;;;;;;17.15;3.78;;;4.50;99.90;;;;;;6699243;88;20352;-77
2021/12/07 03:53:02;;;;;;;14.40;4.00;;;4.60;99.90;;;;;;6699320;88;20241;-77
2021/12/07 04:03:07;;;;;;;10.75;3.47;;;4.70;99.90;;;;;;6701820;88;20650;-76
2021/12/07 04:13:08;;;;;;;14.00;3.60;;;4.70;99.90;;;;;;6682540;88;20655;-77
2021/12/07 04:23:09;;;;;;;14.25;3.17;;;4.70;99.90;;;;;;6689095;88;20215;-77
2021/12/07 04:33:12;;;;;;;11.73;3.40;;;4.50;99.90;;;;;;6698599;88;20213;-76
2021/12/07 04:43:12;;;;;;;10.48;3.20;;;4.60;99.90;;;;;;6705855;88;20761;-77
2021/12/07 05:03:32;;;;;;;14.57;3.95;;;4.60;99.90;;;;;;6688810;88;20195;-77
2021/12/07 05:13:38;;;;;;;9.85;3.60;;;4.60;99.90;;;;;;6698331;88;20210;-77
2021/12/07 05:44:17;;;;;;;12.00;3.10;;;4.50;99.90;;;;;;6719424;77;20177;-75
2021/12/07 05:54:17;;;;;;;11.38;3.10;;;4.40;99.90;;;;;;6737292;88;20261;-75
2021/12/07 06:04:18;;;;;;;10.70;2.45;;;4.50;99.90;;;;;;6733109;88;20193;-75
2021/12/07 06:14:20;;;;;;;11.75;3.12;;;4.50;99.90;;;;;;6731605;88;20307;-75
2021/12/07 06:24:20;;;;;;;11.15;2.67;;;4.40;99.90;;;;;;6734251;88;20202;-75
2021/12/07 06:34:21;;;;;;;11.95;2.65;;;4.30;99.90;;;;;;6734569;88;20189;-75
2021/12/07 06:44:22;;;;;;;10.43;2.83;;;4.30;99.90;;;;;;6735363;88;20201;-75
2021/12/07 06:54:23;;;;;;;9.98;2.50;;;4.20;99.90;;;;;;6733149;88;20225;-75
2021/12/07 07:04:23;;;;;;;14.80;3.08;;;4.10;99.90;;;;;;6729381;88;20209;-75
2021/12/07 07:14:24;;;;;;;12.60;2.92;;;4.00;99.90;;;;;;6732864;88;20221;-76
2021/12/07 07:24:24;;;;;;;10.85;2.75;;;4.00;99.90;;;;;;6733544;88;20223;-74
2021/12/07 07:34:25;;;;;;;9.63;2.50;;;3.80;99.90;;;;;;6736708;88;20194;-76
2021/12/07 07:44:26;;;;;;;10.52;2.72;;;3.80;99.90;;;;;;6735475;88;20184;-75
2021/12/07 07:54:28;;;;;;;10.10;2.95;;;4.00;99.90;;;;;;6734190;88;20703;-75
2021/12/07 08:04:29;;;;;;;12.52;3.10;;;4.00;99.90;;;;;;6732414;88;20219;-75
2021/12/07 08:14:29;;;;;;;7.57;2.15;;;4.10;99.90;;;;;;6730377;88;20344;-76
2021/12/07 08:24:30;;;;;;;10.23;2.28;;;4.00;99.90;;;;;;6732711;88;20258;-76
2021/12/07 08:34:30;;;;;;;9.45;2.33;;;3.90;99.90;;;;;;6730406;88;20213;-75
2021/12/07 08:44:32;;;;;;;6.45;2.20;;;3.90;99.90;;;;;;6732274;88;20224;-75
2021/12/07 09:04:43;;;;;;;8.52;1.62;;;4.10;99.90;;;;;;6730777;88;20198;-75
2021/12/07 09:14:44;;;;;;;9.70;1.58;;;4.60;99.90;;;;;;6727916;88;20262;-75
2021/12/07 09:24:45;;;;;;;8.63;1.50;;;4.90;99.90;;;;;;6731939;88;20315;-75
2021/12/07 09:34:45;;;;;;;6.20;1.12;;;5.20;99.90;;;;;;6730946;88;20642;-74
2021/12/07 09:44:47;;;;;;;7.53;1.35;;;5.90;99.90;;;;;;6724627;88;20215;-74
2021/12/07 09:54:48;;;;;;;7.18;1.30;;;6.30;99.90;;;;;;6732783;88;20212;-76
2021/12/07 10:04:49;;;;;;;4.70;1.23;;;6.50;99.90;;;;;;6733602;88;20324;-74
2021/12/07 10:14:50;;;;;;;9.32;1.45;;;6.60;99.90;;;;;;6736290;88;20802;-74
2021/12/07 10:24:54;;;;;;;8.30;1.10;;;7.00;99.90;;;;;;6734352;88;20633;-75
2021/12/07 10:34:56;;;;;;;5.37;1.12;;;7.00;99.90;;;;;;6726050;88;20230;-75
2021/12/07 10:45:02;;;;;;;4.97;1.10;;;7.50;99.90;;;;;;6728704;88;20193;-75
2021/12/07 10:55:12;;;;;;;8.03;1.20;;;8.30;99.90;;;;;;6729236;88;20313;-74
2021/12/07 11:05:24;;;;;;;6.78;1.17;;;7.90;99.90;;;;;;6717733;88;20231;-75
2021/12/07 11:15:27;;;;;;;4.25;1.10;;;7.80;99.90;;;;;;6742309;88;20697;-75
2021/12/07 11:35:51;;;;;;;6.65;1.15;;;7.80;99.90;;;;;;6735724;88;20231;-75
2021/12/07 11:45:52;;;;;;;4.20;0.85;;;8.70;99.90;;;;;;6732838;88;20193;-75
2021/12/07 11:55:54;;;;;;;4.68;0.95;;;8.10;99.90;;;;;;6734309;88;20234;-75
2021/12/07 12:05:55;;;;;;;5.78;1.30;;;8.50;99.90;;;;;;6736318;88;20189;-75
2021/12/07 12:16:20;;;;;;;4.72;1.10;;;8.10;99.90;;;;;;6734739;88;20671;-75
2021/12/07 12:26:23;;;;;;;6.30;1.08;;;8.30;99.90;;;;;;6734488;88;20888;-74
2021/12/07 12:36:26;;;;;;;6.55;0.93;;;7.70;99.90;;;;;;6735455;88;20196;-76
2021/12/07 12:46:31;;;;;;;3.95;1.00;;;7.90;99.90;;;;;;6733681;88;20677;-75
2021/12/07 12:56:36;;;;;;;4.77;0.80;;;8.40;99.90;;;;;;6735164;88;20184;-74
2021/12/07 13:06:55;;;;;;;5.45;1.02;;;7.00;99.90;;;;;;6736012;88;20204;-74
2021/12/07 13:17:17;;;;;;;3.58;0.70;;;6.80;99.90;;;;;;6727466;88;20216;-75
2021/12/07 13:27:17;;;;;;;5.32;0.88;;;7.90;99.90;;;;;;6732710;88;20181;-75
2021/12/07 13:37:20;;;;;;;6.47;0.90;;;7.60;99.90;;;;;;6733880;88;20189;-73
2021/12/07 13:47:26;;;;;;;5.25;1.40;;;7.60;99.90;;;;;;6732918;88;20220;-75
2021/12/07 13:57:35;;;;;;;6.35;0.80;;;6.70;99.90;;;;;;6741918;88;20203;-74
2021/12/07 14:07:36;;;;;;;4.28;1.20;;;6.60;99.90;;;;;;6734649;88;20173;-74
2021/12/07 14:17:39;;;;;;;6.32;1.37;;;6.20;99.90;;;;;;6736019;88;20433;-74
2021/12/07 14:27:44;;;;;;;5.50;0.93;;;5.80;99.90;;;;;;6734903;88;20212;-74
2021/12/07 14:37:45;;;;;;;7.05;1.10;;;5.60;99.90;;;;;;6726857;88;20634;-74
2021/12/07 14:47:45;;;;;;;6.78;1.20;;;5.50;99.90;;;;;;6735719;88;20186;-75
2021/12/07 14:57:46;;;;;;;5.70;1.25;;;5.40;99.90;;;;;;6746366;88;20206;-74
2021/12/07 15:07:47;;;;;;;6.62;1.12;;;5.30;99.90;;;;;;6754337;88;20227;-74
2021/12/07 15:17:47;;;;;;;5.60;1.17;;;5.10;99.90;;;;;;6736978;88;20343;-75
2021/12/07 15:27:49;;;;;;;5.70;1.15;;;5.00;99.90;;;;;;6731759;88;20498;-74
2021/12/07 15:37:50;;;;;;;4.72;1.40;;;4.90;99.90;;;;;;6736571;87;20255;-75
2021/12/07 15:47:51;;;;;;;4.40;1.43;;;4.80;99.90;;;;;;6738854;88;20197;-75
2021/12/07 15:57:58;;;;;;;6.22;1.30;;;4.70;99.90;;;;;;6740686;88;21034;-75
2021/12/07 16:08:15;;;;;;;4.28;1.20;;;4.60;99.90;;;;;;6736685;88;20183;-75
2021/12/07 16:18:15;;;;;;;7.13;1.30;;;4.50;99.90;;;;;;6740881;88;20209;-75
2021/12/07 16:28:17;;;;;;;5.37;1.42;;;4.50;99.90;;;;;;6742721;88;20203;-75
2021/12/07 16:38:17;;;;;;;5.82;1.00;;;4.50;99.90;;;;;;6738528;88;20192;-74
2021/12/07 16:48:18;;;;;;;5.97;1.30;;;4.40;99.90;;;;;;6737627;88;20198;-74
2021/12/07 16:58:19;;;;;;;4.68;1.30;;;4.40;99.90;;;;;;6739371;88;20349;-74
2021/12/07 17:08:20;;;;;;;4.87;1.10;;;4.50;99.90;;;;;;6734010;88;20205;-74
2021/12/07 17:18:23;;;;;;;3.42;1.05;;;4.50;99.90;;;;;;6734299;88;20229;-74
2021/12/07 17:28:24;;;;;;;3.00;1.00;;;4.50;99.90;;;;;;6734087;88;20220;-74
2021/12/07 17:38:48;;;;;;;4.15;1.65;;;4.50;99.90;;;;;;6707466;77;20216;-79
2021/12/07 17:48:48;;;;;;;4.80;2.08;;;4.50;99.90;;;;;;6685101;88;20176;-76
2021/12/07 17:58:49;;;;;;;4.20;1.60;;;4.60;99.90;;;;;;6685437;88;20218;-77
2021/12/07 18:08:50;;;;;;;1.87;0.68;;;4.60;99.90;;;;;;6684640;88;20178;-76
2021/12/07 18:18:50;;;;;;;4.90;1.65;;;4.70;99.90;;;;;;6671460;88;20178;-77
2021/12/07 18:28:51;;;;;;;3.17;1.00;;;4.70;99.90;;;;;;6686367;88;20205;-77
2021/12/07 18:38:51;;;;;;;6.22;1.17;;;4.80;99.90;;;;;;6685339;88;20211;-75
2021/12/07 18:48:52;;;;;;;3.78;1.33;;;4.80;99.90;;;;;;6684245;88;20325;-76
2021/12/07 18:58:54;;;;;;;5.15;1.20;;;4.80;99.90;;;;;;6682266;88;20320;-76
2021/12/07 19:08:55;;;;;;;4.57;1.17;;;4.80;99.90;;;;;;6685478;88;20195;-77
2021/12/07 19:18:56;;;;;;;5.35;1.10;;;4.80;99.90;;;;;;6679296;88;20195;-77
2021/12/07 19:28:56;;;;;;;8.57;1.55;;;4.80;99.90;;;;;;6677461;88;20363;-76
2021/12/07 19:38:58;;;;;;;6.73;1.37;;;4.80;99.90;;;;;;6684501;88;20237;-75
2021/12/07 19:48:58;;;;;;;7.12;2.08;;;4.80;99.90;;;;;;6690466;88;20546;-77
2021/12/07 19:59:00;;;;;;;9.98;1.55;;;4.80;99.90;;;;;;6682513;88;20808;-76
2021/12/07 20:09:09;;;;;;;5.12;1.15;;;4.90;99.90;;;;;;6682550;88;20187;-76
2021/12/07 20:19:10;;;;;;;4.65;1.25;;;5.00;99.90;;;;;;6679036;88;20266;-78
2021/12/07 20:29:12;;;;;;;5.65;1.70;;;5.00;99.90;;;;;;6695115;88;20212;-78
2021/12/07 20:39:13;;;;;;;3.90;1.40;;;5.10;99.90;;;;;;6691734;88;20244;-78
2021/12/07 20:49:14;;;;;;;7.62;1.83;;;5.10;99.90;;;;;;6688381;88;20358;-79
2021/12/07 20:59:15;;;;;;;5.75;1.02;;;5.10;99.90;;;;;;6689410;88;20686;-78
2021/12/07 21:09:19;;;;;;;5.00;1.10;;;5.20;99.90;;;;;;6696456;88;20195;-78
2021/12/07 21:19:20;;;;;;;3.92;1.05;;;5.30;99.90;;;;;;6698081;88;20183;-78
2021/12/07 21:29:25;;;;;;;4.50;1.33;;;5.30;99.90;;;;;;6698186;88;20220;-79
2021/12/07 21:39:27;;;;;;;3.28;0.90;;;5.30;99.90;;;;;;6693291;88;20208;-78
2021/12/07 21:49:27;;;;;;;1.70;0.68;;;5.30;99.90;;;;;;6694647;88;20208;-79
2021/12/07 21:59:28;;;;;;;3.33;0.90;;;5.20;99.90;;;;;;6687255;88;20191;-79
2021/12/07 22:09:29;;;;;;;3.47;0.85;;;5.20;99.90;;;;;;6681558;89;20534;-79
2021/12/07 22:19:29;;;;;;;7.07;1.20;;;5.20;99.90;;;;;;6687712;89;20182;-77
2021/12/07 22:29:30;;;;;;;3.28;0.88;;;5.20;99.90;;;;;;6678308;89;20187;-77
2021/12/07 22:39:31;;;;;;;2.70;0.83;;;5.10;99.90;;;;;;6670347;89;20195;-76
2021/12/07 22:49:32;;;;;;;6.10;1.20;;;5.20;99.90;;;;;;6676723;88;20531;-77
2021/12/07 22:59:33;;;;;;;3.78;0.80;;;5.20;99.90;;;;;;6683230;88;20212;-77
2021/12/07 23:09:35;;;;;;;3.67;1.25;;;5.20;99.90;;;;;;6670067;89;21076;-78
2021/12/07 23:19:35;;;;;;;3.78;1.62;;;5.20;99.90;;;;;;6674860;88;20367;-77
2021/12/07 23:29:36;;;;;;;1.42;0.50;;;5.20;99.90;;;;;;6690682;77;20159;-73
2021/12/07 23:39:36;;;;;;;4.20;0.90;;;5.20;99.90;;;;;;6650671;88;20677;-75
2021/12/07 23:49:39;;;;;;;3.47;0.73;;;5.20;99.90;;;;;;6641467;88;20359;-74
2021/12/07 23:59:43;;;;;;;3.10;0.73;;;5.20;99.90;;;;;;6637014;88;20192;-74
